sensor_id;sensor_type;location;lat;lon;timestamp;temperature;humidity
7212;DHT22;3647;48.792;9.802;2023-03-23T05:21:59;10.80;99.90
7212;DHT22;3647;48.792;9.802;2023-03-23T05:24:29;10.80;99.90
7212;DHT22;3647;48.792;9.802;2023-03-23T05:26:58;10.80;99.90
7212;DHT22;3647;48.792;9.802;2023-03-23T05:29:25;10.80;99.90
7212;DHT22;3647;48.792;9.802;2023-03-23T05:31:52;10.80;99.90
7212;DHT22;3647;48.792;9.802;2023-03-23T05:34:21;10.90;99.90
7212;DHT22;3647;48.792;9.802;2023-03-23T05:36:47;10.90;99.90
7212;DHT22;3647;48.792;9.802;2023-03-23T05:39:15;10.90;99.90
7212;DHT22;3647;48.792;9.802;2023-03-23T05:41:43;10.90;99.90
7212;DHT22;3647;48.792;9.802;2023-03-23T05:44:09;10.90;99.90
7212;DHT22;3647;48.792;9.802;2023-03-23T05:46:38;10.90;99.90
7212;DHT22;3647;48.792;9.802;2023-03-23T05:49:05;10.90;99.90
7212;DHT22;3647;48.792;9.802;2023-03-23T05:51:32;11.00;99.90
7212;DHT22;3647;48.792;9.802;2023-03-23T05:54:00;11.00;99.90
7212;DHT22;3647;48.792;9.802;2023-03-23T05:56:28;11.00;99.90
7212;DHT22;3647;48.792;9.802;2023-03-23T05:58:56;11.00;99.90
7212;DHT22;3647;48.792;9.802;2023-03-23T06:01:23;11.00;99.90
7212;DHT22;3647;48.792;9.802;2023-03-23T06:03:50;11.10;99.90
7212;DHT22;3647;48.792;9.802;2023-03-23T06:06:19;11.00;99.90
7212;DHT22;3647;48.792;9.802;2023-03-23T06:08:46;11.10;99.90
7212;DHT22;3647;48.792;9.802;2023-03-23T06:11:14;11.10;99.90
7212;DHT22;3647;48.792;9.802;2023-03-23T06:13:42;11.20;99.90
7212;DHT22;3647;48.792;9.802;2023-03-23T06:16:09;11.20;99.90
7212;DHT22;3647;48.792;9.802;2023-03-23T06:18:36;11.30;99.90
7212;DHT22;3647;48.792;9.802;2023-03-23T06:21:06;11.30;99.90
7212;DHT22;3647;48.792;9.802;2023-03-23T06:23:33;11.30;99.90
7212;DHT22;3647;48.792;9.802;2023-03-23T06:26:03;11.30;99.90
7212;DHT22;3647;48.792;9.802;2023-03-23T06:28:31;11.40;99.90
7212;DHT22;3647;48.792;9.802;2023-03-23T06:31:00;11.40;99.90
7212;DHT22;3647;48.792;9.802;2023-03-23T06:33:28;11.50;99.90
7212;DHT22;3647;48.792;9.802;2023-03-23T06:35:55;11.60;99.90
7212;DHT22;3647;48.792;9.802;2023-03-23T06:38:23;11.70;99.90
7212;DHT22;3647;48.792;9.802;2023-03-23T06:40:51;11.80;99.90
7212;DHT22;3647;48.792;9.802;2023-03-23T06:43:18;11.80;99.90
7212;DHT22;3647;48.792;9.802;2023-03-23T06:45:45;11.90;99.90
7212;DHT22;3647;48.792;9.802;2023-03-23T06:48:13;12.00;99.90
7212;DHT22;3647;48.792;9.802;2023-03-23T06:50:42;12.00;99.90
7212;DHT22;3647;48.792;9.802;2023-03-23T06:53:09;12.10;99.90
7212;DHT22;3647;48.792;9.802;2023-03-23T06:55:36;12.20;99.90
7212;DHT22;3647;48.792;9.802;2023-03-23T06:58:03;12.30;99.90
7212;DHT22;3647;48.792;9.802;2023-03-23T07:00:31;12.20;99.90
7212;DHT22;3647;48.792;9.802;2023-03-23T07:02:58;12.30;99.90
7212;DHT22;3647;48.792;9.802;2023-03-23T07:05:26;12.40;99.90
7212;DHT22;3647;48.792;9.802;2023-03-23T07:07:53;12.50;99.90
7212;DHT22;3647;48.792;9.802;2023-03-23T07:10:20;12.70;99.90
7212;DHT22;3647;48.792;9.802;2023-03-23T07:12:46;12.80;99.90
7212;DHT22;3647;48.792;9.802;2023-03-23T07:15:13;13.00;99.90
7212;DHT22;3647;48.792;9.802;2023-03-23T07:17:41;13.10;99.90
7212;DHT22;3647;48.792;9.802;2023-03-23T07:20:08;13.20;99.90
7212;DHT22;3647;48.792;9.802;2023-03-23T07:22:40;13.50;99.90
7212;DHT22;3647;48.792;9.802;2023-03-23T07:25:07;13.60;99.90
7212;DHT22;3647;48.792;9.802;2023-03-23T07:27:34;13.80;99.90
7212;DHT22;3647;48.792;9.802;2023-03-23T07:30:01;14.00;99.90
7212;DHT22;3647;48.792;9.802;2023-03-23T07:32:28;14.20;99.90
7212;DHT22;3647;48.792;9.802;2023-03-23T07:34:55;14.30;99.90
7212;DHT22;3647;48.792;9.802;2023-03-23T07:37:22;14.40;99.90
7212;DHT22;3647;48.792;9.802;2023-03-23T07:39:51;14.50;99.90
7212;DHT22;3647;48.792;9.802;2023-03-23T07:42:18;14.60;99.90
7212;DHT22;3647;48.792;9.802;2023-03-23T07:44:45;14.70;99.90
7212;DHT22;3647;48.792;9.802;2023-03-23T07:47:11;14.80;99.90
7212;DHT22;3647;48.792;9.802;2023-03-23T07:49:38;14.80;99.90
7212;DHT22;3647;48.792;9.802;2023-03-23T07:52:05;14.80;99.90
7212;DHT22;3647;48.792;9.802;2023-03-23T07:54:32;14.90;99.90
7212;DHT22;3647;48.792;9.802;2023-03-23T07:57:01;14.80;99.90
7212;DHT22;3647;48.792;9.802;2023-03-23T07:59:28;14.80;99.90
7212;DHT22;3647;48.792;9.802;2023-03-23T08:01:54;14.80;99.90
7212;DHT22;3647;48.792;9.802;2023-03-23T08:04:23;14.70;99.90
7212;DHT22;3647;48.792;9.802;2023-03-23T08:06:50;14.70;99.90
7212;DHT22;3647;48.792;9.802;2023-03-23T08:09:17;14.70;99.90
7212;DHT22;3647;48.792;9.802;2023-03-23T08:11:43;14.70;99.90
7212;DHT22;3647;48.792;9.802;2023-03-23T08:14:11;14.70;99.90
7212;DHT22;3647;48.792;9.802;2023-03-23T08:16:38;14.70;99.90
7212;DHT22;3647;48.792;9.802;2023-03-23T08:19:05;14.70;99.90
7212;DHT22;3647;48.792;9.802;2023-03-23T08:21:32;14.70;99.90
7212;DHT22;3647;48.792;9.802;2023-03-23T08:23:58;14.80;99.90
7212;DHT22;3647;48.792;9.802;2023-03-23T08:26:25;14.80;99.90
7212;DHT22;3647;48.792;9.802;2023-03-23T08:28:52;14.80;99.90
7212;DHT22;3647;48.792;9.802;2023-03-23T08:31:21;14.80;99.90
7212;DHT22;3647;48.792;9.802;2023-03-23T08:33:47;14.90;99.90
7212;DHT22;3647;48.792;9.802;2023-03-23T08:36:14;15.00;99.90
7212;DHT22;3647;48.792;9.802;2023-03-23T08:38:41;15.10;99.90
7212;DHT22;3647;48.792;9.802;2023-03-23T08:41:09;15.20;99.90
7212;DHT22;3647;48.792;9.802;2023-03-23T08:43:36;15.30;99.90
7212;DHT22;3647;48.792;9.802;2023-03-23T08:46:03;15.40;99.90
7212;DHT22;3647;48.792;9.802;2023-03-23T08:48:36;15.50;99.90
7212;DHT22;3647;48.792;9.802;2023-03-23T08:51:04;15.60;99.90
7212;DHT22;3647;48.792;9.802;2023-03-23T08:53:32;15.80;99.90
7212;DHT22;3647;48.792;9.802;2023-03-23T08:56:03;16.10;99.90
7212;DHT22;3647;48.792;9.802;2023-03-23T08:58:30;16.30;99.90
7212;DHT22;3647;48.792;9.802;2023-03-23T09:00:57;16.50;99.90
7212;DHT22;3647;48.792;9.802;2023-03-23T09:03:25;16.60;99.90
7212;DHT22;3647;48.792;9.802;2023-03-23T09:05:53;16.40;99.90
7212;DHT22;3647;48.792;9.802;2023-03-23T09:08:20;16.90;99.90
7212;DHT22;3647;48.792;9.802;2023-03-23T09:10:47;17.00;99.90
7212;DHT22;3647;48.792;9.802;2023-03-23T09:13:15;17.10;99.90
7212;DHT22;3647;48.792;9.802;2023-03-23T09:15:42;17.10;99.90
7212;DHT22;3647;48.792;9.802;2023-03-23T09:18:09;17.10;99.90
7212;DHT22;3647;48.792;9.802;2023-03-23T09:20:36;17.00;99.90
7212;DHT22;3647;48.792;9.802;2023-03-23T09:23:04;16.90;99.90
7212;DHT22;3647;48.792;9.802;2023-03-23T09:25:32;16.80;99.90
7212;DHT22;3647;48.792;9.802;2023-03-23T09:27:59;16.70;99.90
7212;DHT22;3647;48.792;9.802;2023-03-23T09:30:27;16.60;99.90
7212;DHT22;3647;48.792;9.802;2023-03-23T09:32:54;16.50;99.90
7212;DHT22;3647;48.792;9.802;2023-03-23T09:35:22;16.40;99.90
7212;DHT22;3647;48.792;9.802;2023-03-23T09:37:51;16.40;99.90
7212;DHT22;3647;48.792;9.802;2023-03-23T09:40:22;16.20;99.90
7212;DHT22;3647;48.792;9.802;2023-03-23T09:43:20;16.20;99.90
7212;DHT22;3647;48.792;9.802;2023-03-23T09:45:55;16.20;99.90
7212;DHT22;3647;48.792;9.802;2023-03-23T09:48:32;16.20;99.90
7212;DHT22;3647;48.792;9.802;2023-03-23T09:51:04;16.20;99.90
7212;DHT22;3647;48.792;9.802;2023-03-23T09:53:37;16.20;99.90
7212;DHT22;3647;48.792;9.802;2023-03-23T09:56:12;16.20;99.90
7212;DHT22;3647;48.792;9.802;2023-03-23T09:58:45;16.20;99.90
7212;DHT22;3647;48.792;9.802;2023-03-23T10:01:19;16.20;99.90
7212;DHT22;3647;48.792;9.802;2023-03-23T10:03:47;16.20;99.90
7212;DHT22;3647;48.792;9.802;2023-03-23T10:06:16;16.30;99.90
7212;DHT22;3647;48.792;9.802;2023-03-23T10:08:46;16.20;99.90
7212;DHT22;3647;48.792;9.802;2023-03-23T10:11:23;16.20;99.90
7212;DHT22;3647;48.792;9.802;2023-03-23T10:14:07;16.10;99.90
7212;DHT22;3647;48.792;9.802;2023-03-23T10:16:39;16.20;99.90
7212;DHT22;3647;48.792;9.802;2023-03-23T10:19:11;16.20;99.90
7212;DHT22;3647;48.792;9.802;2023-03-23T10:21:42;16.10;99.90
7212;DHT22;3647;48.792;9.802;2023-03-23T10:24:13;16.10;99.90
7212;DHT22;3647;48.792;9.802;2023-03-23T10:26:48;16.10;99.90
7212;DHT22;3647;48.792;9.802;2023-03-23T10:29:20;16.20;99.90
7212;DHT22;3647;48.792;9.802;2023-03-23T10:31:52;15.10;99.90
7212;DHT22;3647;48.792;9.802;2023-03-23T10:34:23;16.10;99.90
7212;DHT22;3647;48.792;9.802;2023-03-23T10:36:56;16.10;99.90
7212;DHT22;3647;48.792;9.802;2023-03-23T10:39:29;16.10;99.90
7212;DHT22;3647;48.792;9.802;2023-03-23T10:42:00;16.10;99.90
7212;DHT22;3647;48.792;9.802;2023-03-23T10:44:33;16.20;99.90
7212;DHT22;3647;48.792;9.802;2023-03-23T10:47:01;16.10;99.90
7212;DHT22;3647;48.792;9.802;2023-03-23T10:49:34;16.20;99.90
7212;DHT22;3647;48.792;9.802;2023-03-23T10:52:09;16.20;99.90
7212;DHT22;3647;48.792;9.802;2023-03-23T10:54:46;16.20;99.90
7212;DHT22;3647;48.792;9.802;2023-03-23T10:57:21;16.20;99.90
7212;DHT22;3647;48.792;9.802;2023-03-23T10:59:49;16.20;99.90
7212;DHT22;3647;48.792;9.802;2023-03-23T11:02:18;16.20;99.90
7212;DHT22;3647;48.792;9.802;2023-03-23T11:04:53;16.30;99.90
7212;DHT22;3647;48.792;9.802;2023-03-23T11:07:26;15.80;99.90
7212;DHT22;3647;48.792;9.802;2023-03-23T11:09:55;16.50;99.90
7212;DHT22;3647;48.792;9.802;2023-03-23T11:12:25;16.50;99.90
7212;DHT22;3647;48.792;9.802;2023-03-23T11:14:52;16.60;99.90
7212;DHT22;3647;48.792;9.802;2023-03-23T11:17:23;16.70;99.90
7212;DHT22;3647;48.792;9.802;2023-03-23T11:19:52;16.70;99.90
7212;DHT22;3647;48.792;9.802;2023-03-23T11:22:24;16.70;99.90
7212;DHT22;3647;48.792;9.802;2023-03-23T11:24:54;16.80;99.90
7212;DHT22;3647;48.792;9.802;2023-03-23T11:27:23;17.00;99.90
7212;DHT22;3647;48.792;9.802;2023-03-23T11:29:53;17.00;99.90
7212;DHT22;3647;48.792;9.802;2023-03-23T11:32:23;17.00;99.90
7212;DHT22;3647;48.792;9.802;2023-03-23T11:34:54;17.10;99.90
7212;DHT22;3647;48.792;9.802;2023-03-23T11:37:28;17.20;99.90
7212;DHT22;3647;48.792;9.802;2023-03-23T11:39:58;17.40;99.90
7212;DHT22;3647;48.792;9.802;2023-03-23T11:42:34;17.50;99.90
7212;DHT22;3647;48.792;9.802;2023-03-23T11:45:14;17.60;99.90
7212;DHT22;3647;48.792;9.802;2023-03-23T11:47:46;17.90;99.90
7212;DHT22;3647;48.792;9.802;2023-03-23T11:50:18;18.00;99.90
7212;DHT22;3647;48.792;9.802;2023-03-23T11:52:51;18.10;99.90
7212;DHT22;3647;48.792;9.802;2023-03-23T11:55:22;18.10;99.90
7212;DHT22;3647;48.792;9.802;2023-03-23T11:57:50;18.30;99.90
7212;DHT22;3647;48.792;9.802;2023-03-23T12:00:20;18.30;99.90
7212;DHT22;3647;48.792;9.802;2023-03-23T12:05:57;18.40;99.90
7212;DHT22;3647;48.792;9.802;2023-03-23T12:08:48;18.50;99.90
7212;DHT22;3647;48.792;9.802;2023-03-23T12:11:23;18.60;99.90
7212;DHT22;3647;48.792;9.802;2023-03-23T12:14:00;18.70;99.90
7212;DHT22;3647;48.792;9.802;2023-03-23T12:16:41;18.50;99.90
7212;DHT22;3647;48.792;9.802;2023-03-23T12:19:16;18.60;99.90
7212;DHT22;3647;48.792;9.802;2023-03-23T12:21:50;18.70;99.90
7212;DHT22;3647;48.792;9.802;2023-03-23T12:24:29;18.70;99.90
7212;DHT22;3647;48.792;9.802;2023-03-23T12:27:02;18.70;99.90
7212;DHT22;3647;48.792;9.802;2023-03-23T12:29:45;18.70;99.90
7212;DHT22;3647;48.792;9.802;2023-03-23T12:32:38;18.60;99.90
7212;DHT22;3647;48.792;9.802;2023-03-23T12:35:17;18.70;99.90
7212;DHT22;3647;48.792;9.802;2023-03-23T12:37:56;18.90;99.90
7212;DHT22;3647;48.792;9.802;2023-03-23T12:40:37;19.00;99.90
7212;DHT22;3647;48.792;9.802;2023-03-23T12:43:15;18.90;99.90
7212;DHT22;3647;48.792;9.802;2023-03-23T12:48:46;18.90;99.90
7212;DHT22;3647;48.792;9.802;2023-03-23T12:51:19;19.10;99.90
7212;DHT22;3647;48.792;9.802;2023-03-23T12:53:53;19.20;99.90
7212;DHT22;3647;48.792;9.802;2023-03-23T12:56:25;19.00;99.90
7212;DHT22;3647;48.792;9.802;2023-03-23T12:58:59;18.90;99.90
7212;DHT22;3647;48.792;9.802;2023-03-23T13:01:31;18.90;99.90
7212;DHT22;3647;48.792;9.802;2023-03-23T13:04:04;18.80;99.90
7212;DHT22;3647;48.792;9.802;2023-03-23T13:06:34;18.70;99.90
7212;DHT22;3647;48.792;9.802;2023-03-23T13:09:04;18.70;99.90
7212;DHT22;3647;48.792;9.802;2023-03-23T13:11:33;18.80;99.90
7212;DHT22;3647;48.792;9.802;2023-03-23T13:14:10;18.70;99.90
7212;DHT22;3647;48.792;9.802;2023-03-23T13:16:46;18.50;99.90
7212;DHT22;3647;48.792;9.802;2023-03-23T13:19:25;18.40;99.90
7212;DHT22;3647;48.792;9.802;2023-03-23T13:21:57;18.50;99.90
7212;DHT22;3647;48.792;9.802;2023-03-23T13:24:28;18.40;99.90
7212;DHT22;3647;48.792;9.802;2023-03-23T13:26:56;18.40;99.90
7212;DHT22;3647;48.792;9.802;2023-03-23T13:29:24;18.50;99.90
7212;DHT22;3647;48.792;9.802;2023-03-23T13:32:04;18.50;99.90
7212;DHT22;3647;48.792;9.802;2023-03-23T13:34:34;18.30;99.90
7212;DHT22;3647;48.792;9.802;2023-03-23T13:37:03;18.30;99.90
7212;DHT22;3647;48.792;9.802;2023-03-23T13:39:34;18.20;99.90
7212;DHT22;3647;48.792;9.802;2023-03-23T13:42:05;18.30;99.90
7212;DHT22;3647;48.792;9.802;2023-03-23T13:44:44;18.50;99.90
7212;DHT22;3647;48.792;9.802;2023-03-23T13:47:25;18.60;99.90
7212;DHT22;3647;48.792;9.802;2023-03-23T13:49:56;18.70;99.90
7212;DHT22;3647;48.792;9.802;2023-03-23T13:52:25;18.70;99.90
7212;DHT22;3647;48.792;9.802;2023-03-23T13:55:21;18.80;99.90
7212;DHT22;3647;48.792;9.802;2023-03-23T13:57:55;18.80;99.90
7212;DHT22;3647;48.792;9.802;2023-03-23T14:00:36;18.90;99.90
7212;DHT22;3647;48.792;9.802;2023-03-23T14:03:10;18.80;99.90
7212;DHT22;3647;48.792;9.802;2023-03-23T14:05:40;18.80;99.90
7212;DHT22;3647;48.792;9.802;2023-03-23T14:08:14;18.70;99.90
7212;DHT22;3647;48.792;9.802;2023-03-23T14:10:51;18.60;99.90
7212;DHT22;3647;48.792;9.802;2023-03-23T14:13:21;19.10;99.90
7212;DHT22;3647;48.792;9.802;2023-03-23T14:15:58;19.20;99.90
7212;DHT22;3647;48.792;9.802;2023-03-23T14:18:30;19.20;99.90
7212;DHT22;3647;48.792;9.802;2023-03-23T14:20:59;19.20;99.90
7212;DHT22;3647;48.792;9.802;2023-03-23T14:23:26;19.20;99.90
7212;DHT22;3647;48.792;9.802;2023-03-23T14:25:59;19.10;99.90
7212;DHT22;3647;48.792;9.802;2023-03-23T14:28:37;19.10;99.90
7212;DHT22;3647;48.792;9.802;2023-03-23T14:31:04;19.00;99.90
7212;DHT22;3647;48.792;9.802;2023-03-23T14:33:31;19.10;99.90
7212;DHT22;3647;48.792;9.802;2023-03-23T14:35:59;19.00;99.90
7212;DHT22;3647;48.792;9.802;2023-03-23T14:38:27;18.90;99.90
7212;DHT22;3647;48.792;9.802;2023-03-23T14:41:01;18.80;99.90
7212;DHT22;3647;48.792;9.802;2023-03-23T14:43:29;18.90;99.90
7212;DHT22;3647;48.792;9.802;2023-03-23T14:45:59;18.90;99.90
7212;DHT22;3647;48.792;9.802;2023-03-23T14:48:26;18.90;99.90
7212;DHT22;3647;48.792;9.802;2023-03-23T14:50:57;18.90;99.90
7212;DHT22;3647;48.792;9.802;2023-03-23T14:53:31;18.80;99.90
7212;DHT22;3647;48.792;9.802;2023-03-23T14:56:00;18.80;99.90
7212;DHT22;3647;48.792;9.802;2023-03-23T14:58:28;18.80;99.90
7212;DHT22;3647;48.792;9.802;2023-03-23T15:00:58;18.70;99.90
7212;DHT22;3647;48.792;9.802;2023-03-23T15:03:27;18.60;99.90
7212;DHT22;3647;48.792;9.802;2023-03-23T15:05:56;18.60;99.90
7212;DHT22;3647;48.792;9.802;2023-03-23T15:08:27;18.70;99.90
7212;DHT22;3647;48.792;9.802;2023-03-23T15:11:04;18.60;99.90
7212;DHT22;3647;48.792;9.802;2023-03-23T15:13:32;18.60;99.90
7212;DHT22;3647;48.792;9.802;2023-03-23T15:16:11;18.50;99.90
7212;DHT22;3647;48.792;9.802;2023-03-23T15:18:39;18.50;99.90
7212;DHT22;3647;48.792;9.802;2023-03-23T15:21:18;18.50;99.90
7212;DHT22;3647;48.792;9.802;2023-03-23T15:23:46;18.50;99.90
7212;DHT22;3647;48.792;9.802;2023-03-23T15:26:31;18.50;99.90
7212;DHT22;3647;48.792;9.802;2023-03-23T15:29:14;18.50;99.90
7212;DHT22;3647;48.792;9.802;2023-03-23T15:31:44;18.50;99.90
7212;DHT22;3647;48.792;9.802;2023-03-23T15:34:21;18.50;99.90
7212;DHT22;3647;48.792;9.802;2023-03-23T15:36:54;18.40;99.90
7212;DHT22;3647;48.792;9.802;2023-03-23T15:39:23;18.30;99.90
7212;DHT22;3647;48.792;9.802;2023-03-23T15:41:52;18.30;99.90
7212;DHT22;3647;48.792;9.802;2023-03-23T15:44:28;18.30;99.90
7212;DHT22;3647;48.792;9.802;2023-03-23T15:47:13;18.30;99.90
7212;DHT22;3647;48.792;9.802;2023-03-23T15:49:41;18.20;99.90
7212;DHT22;3647;48.792;9.802;2023-03-23T15:52:10;18.20;99.90
7212;DHT22;3647;48.792;9.802;2023-03-23T15:54:39;18.20;99.90
7212;DHT22;3647;48.792;9.802;2023-03-23T15:57:12;18.10;99.90
7212;DHT22;3647;48.792;9.802;2023-03-23T15:59:38;18.20;99.90
7212;DHT22;3647;48.792;9.802;2023-03-23T16:02:05;18.20;99.90
7212;DHT22;3647;48.792;9.802;2023-03-23T16:04:32;18.10;99.90
7212;DHT22;3647;48.792;9.802;2023-03-23T16:06:59;18.10;99.90
7212;DHT22;3647;48.792;9.802;2023-03-23T16:09:26;18.00;99.90
7212;DHT22;3647;48.792;9.802;2023-03-23T16:11:54;18.10;99.90
7212;DHT22;3647;48.792;9.802;2023-03-23T16:14:21;18.00;99.90
7212;DHT22;3647;48.792;9.802;2023-03-23T16:16:48;18.00;99.90
7212;DHT22;3647;48.792;9.802;2023-03-23T16:19:17;17.90;99.90
7212;DHT22;3647;48.792;9.802;2023-03-23T16:21:48;17.90;99.90
7212;DHT22;3647;48.792;9.802;2023-03-23T16:24:15;17.80;99.90
7212;DHT22;3647;48.792;9.802;2023-03-23T16:26:42;17.80;99.90
7212;DHT22;3647;48.792;9.802;2023-03-23T16:29:11;17.70;99.90
7212;DHT22;3647;48.792;9.802;2023-03-23T16:31:38;17.60;99.90
7212;DHT22;3647;48.792;9.802;2023-03-23T16:34:05;17.60;99.90
7212;DHT22;3647;48.792;9.802;2023-03-23T16:36:32;17.50;99.90
7212;DHT22;3647;48.792;9.802;2023-03-23T16:39:00;17.50;99.90
7212;DHT22;3647;48.792;9.802;2023-03-23T16:41:27;17.50;99.90
7212;DHT22;3647;48.792;9.802;2023-03-23T16:43:53;17.40;99.90
7212;DHT22;3647;48.792;9.802;2023-03-23T16:46:21;17.30;99.90
7212;DHT22;3647;48.792;9.802;2023-03-23T16:48:48;17.40;99.90
7212;DHT22;3647;48.792;9.802;2023-03-23T16:51:15;17.40;99.90
7212;DHT22;3647;48.792;9.802;2023-03-23T16:53:42;17.40;99.90
7212;DHT22;3647;48.792;9.802;2023-03-23T16:56:09;17.40;99.90
7212;DHT22;3647;48.792;9.802;2023-03-23T16:58:35;17.30;99.90
7212;DHT22;3647;48.792;9.802;2023-03-23T17:01:02;17.30;99.90
7212;DHT22;3647;48.792;9.802;2023-03-23T17:03:31;17.30;99.90
7212;DHT22;3647;48.792;9.802;2023-03-23T17:05:59;17.30;99.90
7212;DHT22;3647;48.792;9.802;2023-03-23T17:08:26;17.20;99.90
7212;DHT22;3647;48.792;9.802;2023-03-23T17:10:53;17.30;99.90
7212;DHT22;3647;48.792;9.802;2023-03-23T17:13:19;17.20;99.90
7212;DHT22;3647;48.792;9.802;2023-03-23T17:15:46;17.20;99.90
7212;DHT22;3647;48.792;9.802;2023-03-23T17:18:13;17.20;99.90
7212;DHT22;3647;48.792;9.802;2023-03-23T17:20:42;17.10;99.90
7212;DHT22;3647;48.792;9.802;2023-03-23T17:23:09;17.20;99.90
7212;DHT22;3647;48.792;9.802;2023-03-23T17:25:36;17.10;99.90
7212;DHT22;3647;48.792;9.802;2023-03-23T17:28:03;17.10;99.90
7212;DHT22;3647;48.792;9.802;2023-03-23T17:30:29;17.00;99.90
7212;DHT22;3647;48.792;9.802;2023-03-23T17:32:56;17.00;99.90
7212;DHT22;3647;48.792;9.802;2023-03-23T17:35:23;17.00;99.90
7212;DHT22;3647;48.792;9.802;2023-03-23T17:37:51;17.00;99.90
7212;DHT22;3647;48.792;9.802;2023-03-23T17:40:18;16.90;99.90
7212;DHT22;3647;48.792;9.802;2023-03-23T17:42:45;16.90;99.90
7212;DHT22;3647;48.792;9.802;2023-03-23T17:45:11;16.90;99.90
7212;DHT22;3647;48.792;9.802;2023-03-23T17:47:38;16.90;99.90
7212;DHT22;3647;48.792;9.802;2023-03-23T17:50:06;16.80;99.90
7212;DHT22;3647;48.792;9.802;2023-03-23T17:52:33;16.80;99.90
7212;DHT22;3647;48.792;9.802;2023-03-23T17:55:02;16.70;99.90
7212;DHT22;3647;48.792;9.802;2023-03-23T17:57:29;16.60;99.90
7212;DHT22;3647;48.792;9.802;2023-03-23T17:59:56;16.50;99.90
7212;DHT22;3647;48.792;9.802;2023-03-23T18:02:23;16.50;99.90
7212;DHT22;3647;48.792;9.802;2023-03-23T18:04:49;16.60;99.90
7212;DHT22;3647;48.792;9.802;2023-03-23T18:07:16;16.40;99.90
7212;DHT22;3647;48.792;9.802;2023-03-23T18:09:48;16.40;99.90
7212;DHT22;3647;48.792;9.802;2023-03-23T18:12:16;16.40;99.90
7212;DHT22;3647;48.792;9.802;2023-03-23T18:14:43;16.40;99.90
7212;DHT22;3647;48.792;9.802;2023-03-23T18:17:10;16.30;99.90
7212;DHT22;3647;48.792;9.802;2023-03-23T18:19:37;16.20;99.90
7212;DHT22;3647;48.792;9.802;2023-03-23T18:22:04;16.30;99.90
7212;DHT22;3647;48.792;9.802;2023-03-23T18:24:30;16.20;99.90
7212;DHT22;3647;48.792;9.802;2023-03-23T18:26:57;16.30;99.90
7212;DHT22;3647;48.792;9.802;2023-03-23T18:29:25;16.20;99.90
7212;DHT22;3647;48.792;9.802;2023-03-23T18:31:52;16.20;99.90
7212;DHT22;3647;48.792;9.802;2023-03-23T18:34:19;16.20;99.90
7212;DHT22;3647;48.792;9.802;2023-03-23T18:36:46;16.20;99.90
7212;DHT22;3647;48.792;9.802;2023-03-23T18:39:12;16.20;99.90
7212;DHT22;3647;48.792;9.802;2023-03-23T18:41:40;16.20;99.90
7212;DHT22;3647;48.792;9.802;2023-03-23T18:44:07;16.20;99.90
7212;DHT22;3647;48.792;9.802;2023-03-23T18:46:35;16.10;99.90
7212;DHT22;3647;48.792;9.802;2023-03-23T18:49:02;16.00;99.90
7212;DHT22;3647;48.792;9.802;2023-03-23T18:51:29;16.00;99.90
7212;DHT22;3647;48.792;9.802;2023-03-23T18:53:56;15.90;99.90
7212;DHT22;3647;48.792;9.802;2023-03-23T18:56:23;15.90;99.90
7212;DHT22;3647;48.792;9.802;2023-03-23T18:58:50;15.80;99.90
7212;DHT22;3647;48.792;9.802;2023-03-23T19:01:17;15.80;99.90
7212;DHT22;3647;48.792;9.802;2023-03-23T19:03:46;15.80;99.90
7212;DHT22;3647;48.792;9.802;2023-03-23T19:06:15;15.70;99.90
7212;DHT22;3647;48.792;9.802;2023-03-23T19:08:42;15.70;99.90
7212;DHT22;3647;48.792;9.802;2023-03-23T19:11:12;15.70;99.90
7212;DHT22;3647;48.792;9.802;2023-03-23T19:13:38;15.80;99.90
7212;DHT22;3647;48.792;9.802;2023-03-23T19:16:06;15.70;99.90
7212;DHT22;3647;48.792;9.802;2023-03-23T19:18:33;15.70;99.90
7212;DHT22;3647;48.792;9.802;2023-03-23T19:21:02;15.60;99.90
7212;DHT22;3647;48.792;9.802;2023-03-23T19:23:29;15.60;99.90
7212;DHT22;3647;48.792;9.802;2023-03-23T19:25:57;15.60;99.90
7212;DHT22;3647;48.792;9.802;2023-03-23T19:28:24;15.60;99.90
7212;DHT22;3647;48.792;9.802;2023-03-23T19:30:53;15.60;99.90
7212;DHT22;3647;48.792;9.802;2023-03-23T19:33:20;15.60;99.90
7212;DHT22;3647;48.792;9.802;2023-03-23T19:35:48;15.70;99.90
7212;DHT22;3647;48.792;9.802;2023-03-23T19:38:18;15.80;99.90
7212;DHT22;3647;48.792;9.802;2023-03-23T19:40:51;15.80;99.90
7212;DHT22;3647;48.792;9.802;2023-03-23T19:43:18;15.90;99.90
7212;DHT22;3647;48.792;9.802;2023-03-23T19:45:46;15.80;99.90
7212;DHT22;3647;48.792;9.802;2023-03-23T19:48:14;15.80;99.90
7212;DHT22;3647;48.792;9.802;2023-03-23T19:50:42;15.80;99.90
7212;DHT22;3647;48.792;9.802;2023-03-23T19:53:09;15.80;99.90
7212;DHT22;3647;48.792;9.802;2023-03-23T19:55:38;15.90;99.90
7212;DHT22;3647;48.792;9.802;2023-03-23T19:58:05;15.90;99.90
7212;DHT22;3647;48.792;9.802;2023-03-23T20:00:32;15.80;99.90
7212;DHT22;3647;48.792;9.802;2023-03-23T20:02:59;15.90;99.90
7212;DHT22;3647;48.792;9.802;2023-03-23T20:05:25;15.80;99.90
7212;DHT22;3647;48.792;9.802;2023-03-23T20:07:52;15.80;99.90
7212;DHT22;3647;48.792;9.802;2023-03-23T20:10:20;15.70;99.90
7212;DHT22;3647;48.792;9.802;2023-03-23T20:12:48;15.70;99.90
7212;DHT22;3647;48.792;9.802;2023-03-23T20:15:15;15.80;99.90
7212;DHT22;3647;48.792;9.802;2023-03-23T20:17:42;15.70;99.90
7212;DHT22;3647;48.792;9.802;2023-03-23T20:20:09;15.70;99.90
7212;DHT22;3647;48.792;9.802;2023-03-23T20:22:36;15.70;99.90
7212;DHT22;3647;48.792;9.802;2023-03-23T20:25:04;15.70;99.90
7212;DHT22;3647;48.792;9.802;2023-03-23T20:27:31;15.70;99.90
7212;DHT22;3647;48.792;9.802;2023-03-23T20:30:00;15.60;99.90
7212;DHT22;3647;48.792;9.802;2023-03-23T20:32:29;15.60;99.90
7212;DHT22;3647;48.792;9.802;2023-03-23T20:34:59;15.60;99.90
7212;DHT22;3647;48.792;9.802;2023-03-23T20:37:26;15.60;99.90
7212;DHT22;3647;48.792;9.802;2023-03-23T20:39:52;15.50;99.90
7212;DHT22;3647;48.792;9.802;2023-03-23T20:42:19;15.50;99.90
7212;DHT22;3647;48.792;9.802;2023-03-23T20:44:46;15.50;99.90
7212;DHT22;3647;48.792;9.802;2023-03-23T20:47:14;15.60;99.90
7212;DHT22;3647;48.792;9.802;2023-03-23T20:49:41;15.60;99.90
7212;DHT22;3647;48.792;9.802;2023-03-23T20:52:08;15.60;99.90
7212;DHT22;3647;48.792;9.802;2023-03-23T20:54:36;15.60;99.90
7212;DHT22;3647;48.792;9.802;2023-03-23T20:57:04;15.60;99.90
7212;DHT22;3647;48.792;9.802;2023-03-23T20:59:32;15.60;99.90
7212;DHT22;3647;48.792;9.802;2023-03-23T21:01:59;15.50;99.90
7212;DHT22;3647;48.792;9.802;2023-03-23T21:04:27;15.40;99.90
7212;DHT22;3647;48.792;9.802;2023-03-23T21:06:54;15.40;99.90
7212;DHT22;3647;48.792;9.802;2023-03-23T21:09:22;15.30;99.90
7212;DHT22;3647;48.792;9.802;2023-03-23T21:11:49;15.30;99.90
7212;DHT22;3647;48.792;9.802;2023-03-23T21:14:16;15.40;99.90
7212;DHT22;3647;48.792;9.802;2023-03-23T21:16:43;15.10;99.90
7212;DHT22;3647;48.792;9.802;2023-03-23T21:19:11;15.10;99.90
7212;DHT22;3647;48.792;9.802;2023-03-23T21:21:39;15.20;99.90
7212;DHT22;3647;48.792;9.802;2023-03-23T21:24:08;15.30;99.90
7212;DHT22;3647;48.792;9.802;2023-03-23T21:26:35;15.40;99.90
7212;DHT22;3647;48.792;9.802;2023-03-23T21:29:03;15.40;99.90
7212;DHT22;3647;48.792;9.802;2023-03-23T21:31:34;15.40;99.90
7212;DHT22;3647;48.792;9.802;2023-03-23T21:34:01;15.40;99.90
7212;DHT22;3647;48.792;9.802;2023-03-23T21:36:28;15.20;99.90
7212;DHT22;3647;48.792;9.802;2023-03-23T21:38:57;15.10;99.90
7212;DHT22;3647;48.792;9.802;2023-03-23T21:41:24;15.10;99.90
7212;DHT22;3647;48.792;9.802;2023-03-23T21:43:51;15.00;99.90